الصفحة الرئيسية
METAR-TAF:

METAR-TAF

مطار :

نواكشوط, موريتانيا

مطار نواكشوط الدولي

دائرة عرض: 18-18-36N, خط طول: 015-58-11W, ارتفاع: 3 متر

مراقبة الطقس الحالي

تاريخ ووقت الإصدار 35 دقيقة قبل الساعة 02:30UTC
ريح 10 عقدة من الشمال
درجة الحرارة 18°درجة مئوية
الرطوبة 68%
ضغط 1011 hPa
الرؤية: 8000 متر

METAR: GQNO 220230Z 35010KT 8000 NSC 18/12 Q1011 NOSIG

زمن: 03:05 (03:05 UTC)

توقعات

تاريخ ووقت الإصدار 4ساعات و 5 دقيقة قبل الساعة 23:00UTC
التوقعات صالحة من22 الساعة 00 UTC إلى 23 الساعة 06 UTC
ريح 14 عقدة من الشمال
الرؤية: 7000 متر
نظرية الاحتمالات 30% :
مؤقت
من 22 الساعة 14 UTC إلى 22 الساعة 18 UTC
الرؤية: 4000 متر
هبوب الغبار

TAF: GQNO 212300Z 2200/2306 36014KT 7000 NSC PROB30 TEMPO 2214/2218 4000 BLDU

أرصاد الطقس والتوقعات من أكثر من 4000 مطار (تقارير الطقس للمطار METAR والتنبؤ بالطقس بالمطارTAF).

المحطات المتاحة هي النقط الصفراء والحمراء على الخريطة.

حرك المؤشر فوق النقطة لمعرفة اسم المحطة.

ثم انقر لمعرفة أرصاد وتوقعات الطقس.

لتغيير الخارطة: اضغط على الأزرار الخضراء مع رمز الصليب الأسود للتكبير. على الزر الأخضر مع شرطة للتصغير، أو على الأسهم الخضراء للخرائط المجاورة.


METAR-TAF: